• Join FlightAware (Why Join?)
  • Login
  • US Flag 
01:44PM EDT


 

Airport Tracker/Info


-or-


 

Live Flight TrackerFlight Track Log ✈ UCA4838 ✈ 19-Jun-2013 ✈ KROC - KEWR

Flight Track Log - Related Links

Times and Time Zones

All times are in EDT time to prevent confusion due to time zone crossing. See the UCA4838 flight status page for this flight to view local times or setup timezone preferences in your user account.

Time Position Orientation Groundspeed Altitude Reporting Facility
EDT Latitude Longitude Course Direction KTS MPH feet Rate Location/Type
06:19AM 43.1219 -77.6761 92° East 133 153 900  Level Cleveland Center
06:20AM 43.1206 -77.6250 92° East 146 168 2,300 1,140 Climbing Cleveland Center
06:21AM 43.0783 -77.5275 121° Southeast 183 211 4,200 1,140 Climbing Cleveland Center
06:22AM 43.0497 -77.4664 123° Southeast 183 211 5,600 1,320 Climbing Cleveland Center
06:23AM 43.0189 -77.4000 122° Southeast 194 223 6,900 1,440 Climbing Cleveland Center
06:24AM 42.9878 -77.3361 124° Southeast 194 223 8,500 1,440 Climbing Cleveland Center
06:25AM 42.9589 -77.2753 123° Southeast 194 223 9,800 1,140 Climbing Cleveland Center
06:28AM 42.8864 -77.1158 122° Southeast 203 234 12,600 900 Climbing New York Center
06:29AM 42.8506 -77.0447 124° Southeast 203 234 13,000 120 Climbing New York Center
06:30AM 42.8092 -76.9614 124° Southeast 234 269 12,900 -60 Descending New York Center
06:31AM 42.7453 -76.8203 122° Southeast 269 310 12,900  Level Boston Center
06:32AM 42.7053 -76.7269 120° Southeast 280 322 12,900  Level Boston Center
06:33AM 42.6628 -76.6364 123° Southeast 280 322 13,000  Climbing Boston Center
06:34AM 42.6222 -76.5433 121° Southeast 280 322 13,000  Level Boston Center
06:35AM 42.5817 -76.4531 121° Southeast 285 328 13,000  Level Boston Center
06:36AM 42.5392 -76.3575 121° Southeast 285 328 13,000  Level Boston Center
06:37AM 42.4986 -76.2647 121° Southeast 285 328 13,000  Level Boston Center
06:38AM 42.4617 -76.1836 122° Southeast 285 328 13,000  Level Boston Center
06:39AM 42.4208 -76.0939 122° Southeast 285 328 13,000  Level Boston Center
06:40AM 42.3800 -76.0014 121° Southeast 292 336 13,000  Level Boston Center
06:41AM 42.3350 -75.9033 122° Southeast 288 331 13,000  Level Boston Center
06:42AM 42.2939 -75.8142 122° Southeast 288 331 13,000  Level Boston Center
06:43AM 42.2489 -75.7106 120° Southeast 286 329 13,000  Level Boston Center
06:44AM 42.2056 -75.6242 124° Southeast 286 329 13,000  Level Boston Center
06:45AM 42.1644 -75.5325 121° Southeast 286 329 13,000  Level Boston Center
06:46AM 42.1211 -75.4381 122° Southeast 286 329 13,000  Level Boston Center
06:47AM 42.0775 -75.3464 123° Southeast 286 329 13,000  Level Boston Center
06:48AM 42.0383 -75.2522 119° Southeast 286 329 13,000  Level Boston Center
06:49AM 42.0031 -75.1558 116° Southeast 281 323 13,000  Level Boston Center
06:50AM 41.9636 -75.0592 119° Southeast 286 329 13,000  Level Boston Center
06:51AM 41.9283 -74.9628 116° Southeast 286 329 13,000 -540 Level Boston Center
06:52AM 41.8589 -74.8986 145° Southeast 286 329 12,000 -1,200 Descending Boston Center
06:53AM 41.7828 -74.8483 154° Southeast 303 349 10,700 -1,320 Descending Boston Center
06:54AM 41.7069 -74.7956 153° Southeast 303 349 9,400 -1,260 Descending Boston Center
06:55AM 41.6350 -74.7456 153° Southeast 303 349 8,200 -1,260 Descending Boston Center
06:56AM 41.5608 -74.6956 153° Southeast 298 343 6,900 -1,080 Descending Boston Center
06:57AM 41.4889 -74.6461 153° Southeast 298 343 6,100 -420 Descending Boston Center
06:59AM 41.4000 -74.6000 159° South 274 315 6,000 -180 Descending New York TRACON
07:00AM 41.3167 -74.6167 189° South 271 312 5,800 -600 Descending New York TRACON
07:01AM 41.2500 -74.6167 180° South 283 326 4,900 -420 Descending New York TRACON
07:02AM 41.1667 -74.6167 180° South 279 321 5,000  Climbing New York TRACON
07:03AM 41.1000 -74.6000 169° South 268 308 5,000  Level New York TRACON
07:04AM 41.0333 -74.5500 150° Southeast 262 302 5,000  Level New York TRACON
07:05AM 40.9833 -74.5000 143° Southeast 273 314 5,000  Level New York TRACON
07:06AM 40.9333 -74.5833 232° Southwest 252 290 5,000  Level New York TRACON
07:07AM 40.8667 -74.6000 191° South 264 304 5,000  Level New York TRACON
07:08AM 40.8000 -74.6000 180° South 264 304 5,000  Level New York TRACON
07:09AM 40.7167 -74.5833 171° South 267 307 5,000  Level New York TRACON
07:10AM 40.6500 -74.5667 169° South 267 307 5,000 -120 Level New York TRACON
07:11AM 40.5833 -74.5500 169° South 269 310 4,800 -720 Descending New York TRACON
07:12AM 40.5000 -74.5167 163° South 271 312 3,600 -900 Descending New York TRACON
07:13AM 40.4333 -74.4833 159° South 261 300 3,000 -300 Descending New York TRACON
07:14AM 40.4167 -74.4000 105° East 214 246 3,000  Level New York TRACON
07:15AM 40.4333 -74.3333 72° East 201 231 3,000  Level New York TRACON
07:16AM 40.4833 -74.3000 27° Northeast 183 211 3,000  Level New York TRACON
07:17AM 40.5333 -74.2667 27° Northeast 181 208 3,000 -360 Level New York TRACON
07:18AM 40.5667 -74.2333 37° Northeast 173 199 2,300 -780 Descending New York TRACON
07:19AM 40.6167 -74.2167 14° North 151 174 1,500 -780 Descending New York TRACON
07:20AM 40.6500 -74.2000 21° North 134 154 800 -720 Descending New York TRACON